sensor_id;sensor_type;location;lat;lon;timestamp;pressure;altitude;pressure_sealevel;temperature;humidity
58467;BME280;44255;49.244;7.726;2023-04-15T00:01:59;97426.50;;;-2.35;69.54
58467;BME280;44255;49.244;7.726;2023-04-15T00:04:26;97428.97;;;-2.86;71.25
58467;BME280;44255;49.244;7.726;2023-04-15T00:06:52;97421.88;;;-2.55;70.39
58467;BME280;44255;49.244;7.726;2023-04-15T00:09:19;97424.13;;;-2.71;70.61
58467;BME280;44255;49.244;7.726;2023-04-15T00:11:45;97419.19;;;-2.82;70.82
58467;BME280;44255;49.244;7.726;2023-04-15T00:14:12;97426.19;;;-2.81;71.11
58467;BME280;44255;49.244;7.726;2023-04-15T00:16:37;97417.75;;;-2.93;71.16
58467;BME280;44255;49.244;7.726;2023-04-15T00:19:02;97420.38;;;-2.93;71.52
58467;BME280;44255;49.244;7.726;2023-04-15T00:21:28;97418.56;;;-2.91;71.13
58467;BME280;44255;49.244;7.726;2023-04-15T00:23:53;97409.53;;;-2.83;70.94
58467;BME280;44255;49.244;7.726;2023-04-15T00:26:19;97414.34;;;-2.98;71.44
58467;BME280;44255;49.244;7.726;2023-04-15T00:28:45;97423.03;;;-2.93;70.91
58467;BME280;44255;49.244;7.726;2023-04-15T00:31:10;97423.91;;;-3.24;71.90
58467;BME280;44255;49.244;7.726;2023-04-15T00:33:36;97421.63;;;-3.36;72.31
58467;BME280;44255;49.244;7.726;2023-04-15T00:36:01;97422.56;;;-3.39;72.81
58467;BME280;44255;49.244;7.726;2023-04-15T00:38:27;97415.94;;;-3.54;73.07
58467;BME280;44255;49.244;7.726;2023-04-15T00:40:53;97412.28;;;-3.48;73.03
58467;BME280;44255;49.244;7.726;2023-04-15T00:43:19;97410.56;;;-3.49;72.94
58467;BME280;44255;49.244;7.726;2023-04-15T00:45:44;97411.22;;;-3.74;73.89
58467;BME280;44255;49.244;7.726;2023-04-15T00:48:11;97408.13;;;-3.57;73.48
58467;BME280;44255;49.244;7.726;2023-04-15T00:50:36;97411.75;;;-3.30;73.10
58467;BME280;44255;49.244;7.726;2023-04-15T00:53:01;97398.47;;;-3.25;71.57
58467;BME280;44255;49.244;7.726;2023-04-15T00:55:27;97398.38;;;-3.53;73.03
58467;BME280;44255;49.244;7.726;2023-04-15T00:57:52;97410.59;;;-3.84;73.87
58467;BME280;44255;49.244;7.726;2023-04-15T01:00:18;97401.88;;;-3.86;73.73
58467;BME280;44255;49.244;7.726;2023-04-15T01:02:44;97398.69;;;-3.33;71.14
58467;BME280;44255;49.244;7.726;2023-04-15T01:05:10;97404.22;;;-3.12;70.71
58467;BME280;44255;49.244;7.726;2023-04-15T01:07:35;97408.25;;;-3.95;73.29
58467;BME280;44255;49.244;7.726;2023-04-15T01:10:02;97401.44;;;-4.02;74.55
58467;BME280;44255;49.244;7.726;2023-04-15T01:12:28;97404.63;;;-3.91;73.73
58467;BME280;44255;49.244;7.726;2023-04-15T01:14:54;97400.72;;;-4.09;74.60
58467;BME280;44255;49.244;7.726;2023-04-15T01:17:20;97392.31;;;-4.23;74.70
58467;BME280;44255;49.244;7.726;2023-04-15T01:19:45;97399.09;;;-4.14;75.29
58467;BME280;44255;49.244;7.726;2023-04-15T01:22:11;97399.00;;;-4.11;74.47
58467;BME280;44255;49.244;7.726;2023-04-15T01:24:36;97397.34;;;-4.14;73.96
58467;BME280;44255;49.244;7.726;2023-04-15T01:27:02;97410.28;;;-4.41;74.75
58467;BME280;44255;49.244;7.726;2023-04-15T01:29:30;97407.38;;;-4.68;76.54
58467;BME280;44255;49.244;7.726;2023-04-15T01:31:56;97412.81;;;-4.76;76.76
58467;BME280;44255;49.244;7.726;2023-04-15T01:34:22;97413.84;;;-4.83;77.82
58467;BME280;44255;49.244;7.726;2023-04-15T01:36:47;97410.38;;;-5.24;79.59
58467;BME280;44255;49.244;7.726;2023-04-15T01:39:13;97425.16;;;-5.20;80.39
58467;BME280;44255;49.244;7.726;2023-04-15T01:41:38;97424.19;;;-4.75;79.26
58467;BME280;44255;49.244;7.726;2023-04-15T01:44:05;97430.47;;;-4.81;78.61
58467;BME280;44255;49.244;7.726;2023-04-15T01:46:31;97426.19;;;-4.85;77.98
58467;BME280;44255;49.244;7.726;2023-04-15T01:48:56;97419.97;;;-4.43;76.00
58467;BME280;44255;49.244;7.726;2023-04-15T01:51:21;97418.44;;;-4.53;75.88
58467;BME280;44255;49.244;7.726;2023-04-15T01:53:47;97419.31;;;-4.53;76.14
58467;BME280;44255;49.244;7.726;2023-04-15T01:56:12;97416.88;;;-4.62;76.21
58467;BME280;44255;49.244;7.726;2023-04-15T01:58:37;97419.88;;;-4.78;76.81
58467;BME280;44255;49.244;7.726;2023-04-15T02:01:04;97424.19;;;-4.74;76.32
58467;BME280;44255;49.244;7.726;2023-04-15T02:03:30;97424.22;;;-4.77;75.90
58467;BME280;44255;49.244;7.726;2023-04-15T02:05:55;97413.97;;;-4.48;76.03
58467;BME280;44255;49.244;7.726;2023-04-15T02:08:20;97416.00;;;-4.25;74.58
58467;BME280;44255;49.244;7.726;2023-04-15T02:10:46;97413.53;;;-4.31;74.47
58467;BME280;44255;49.244;7.726;2023-04-15T02:13:12;97410.72;;;-4.60;75.71
58467;BME280;44255;49.244;7.726;2023-04-15T02:15:37;97413.69;;;-4.75;76.09
58467;BME280;44255;49.244;7.726;2023-04-15T02:18:03;97419.03;;;-4.80;76.52
58467;BME280;44255;49.244;7.726;2023-04-15T02:20:28;97405.69;;;-4.70;76.26
58467;BME280;44255;49.244;7.726;2023-04-15T02:22:55;97416.50;;;-4.84;76.84
58467;BME280;44255;49.244;7.726;2023-04-15T02:25:21;97419.34;;;-4.94;77.03
58467;BME280;44255;49.244;7.726;2023-04-15T02:27:46;97407.34;;;-4.66;76.10
58467;BME280;44255;49.244;7.726;2023-04-15T02:30:11;97416.50;;;-4.83;75.92
58467;BME280;44255;49.244;7.726;2023-04-15T02:32:37;97418.22;;;-4.82;76.27
58467;BME280;44255;49.244;7.726;2023-04-15T02:35:04;97416.41;;;-4.80;76.19
58467;BME280;44255;49.244;7.726;2023-04-15T02:37:30;97418.06;;;-4.76;76.08
58467;BME280;44255;49.244;7.726;2023-04-15T02:39:56;97407.19;;;-4.98;76.54
58467;BME280;44255;49.244;7.726;2023-04-15T02:42:21;97410.75;;;-5.01;76.74
58467;BME280;44255;49.244;7.726;2023-04-15T02:44:46;97404.59;;;-4.99;76.77
58467;BME280;44255;49.244;7.726;2023-04-15T02:47:12;97408.91;;;-4.97;76.90
58467;BME280;44255;49.244;7.726;2023-04-15T02:49:38;97404.50;;;-4.96;76.68
58467;BME280;44255;49.244;7.726;2023-04-15T02:52:04;97408.13;;;-5.02;77.13
58467;BME280;44255;49.244;7.726;2023-04-15T02:54:30;97411.31;;;-4.88;77.50
58467;BME280;44255;49.244;7.726;2023-04-15T02:56:57;97412.31;;;-4.93;75.92
58467;BME280;44255;49.244;7.726;2023-04-15T02:59:22;97402.28;;;-4.76;76.37
58467;BME280;44255;49.244;7.726;2023-04-15T03:01:47;97412.59;;;-4.66;76.03
58467;BME280;44255;49.244;7.726;2023-04-15T03:04:13;97422.50;;;-4.78;76.83
58467;BME280;44255;49.244;7.726;2023-04-15T03:06:38;97414.91;;;-4.90;76.83
58467;BME280;44255;49.244;7.726;2023-04-15T03:09:04;97418.25;;;-5.24;77.13
58467;BME280;44255;49.244;7.726;2023-04-15T03:11:29;97420.22;;;-5.34;77.78
58467;BME280;44255;49.244;7.726;2023-04-15T03:13:55;97411.38;;;-5.32;78.03
58467;BME280;44255;49.244;7.726;2023-04-15T03:16:21;97414.00;;;-5.32;77.66
58467;BME280;44255;49.244;7.726;2023-04-15T03:18:46;97418.81;;;-5.52;78.06
58467;BME280;44255;49.244;7.726;2023-04-15T03:21:11;97413.84;;;-5.69;78.83
58467;BME280;44255;49.244;7.726;2023-04-15T03:23:37;97411.22;;;-5.68;79.35
58467;BME280;44255;49.244;7.726;2023-04-15T03:26:03;97406.72;;;-5.63;78.97
58467;BME280;44255;49.244;7.726;2023-04-15T03:28:29;97411.09;;;-5.62;78.92
58467;BME280;44255;49.244;7.726;2023-04-15T03:30:54;97406.72;;;-5.61;78.68
58467;BME280;44255;49.244;7.726;2023-04-15T03:33:20;97414.59;;;-5.63;79.23
58467;BME280;44255;49.244;7.726;2023-04-15T03:35:45;97408.44;;;-5.59;79.29
58467;BME280;44255;49.244;7.726;2023-04-15T03:38:10;97403.63;;;-5.38;78.65
58467;BME280;44255;49.244;7.726;2023-04-15T03:40:36;97409.25;;;-5.56;79.35
58467;BME280;44255;49.244;7.726;2023-04-15T03:43:01;97402.66;;;-5.34;78.73
58467;BME280;44255;49.244;7.726;2023-04-15T03:45:26;97403.66;;;-5.39;78.50
58467;BME280;44255;49.244;7.726;2023-04-15T03:47:51;97403.19;;;-5.60;78.85
58467;BME280;44255;49.244;7.726;2023-04-15T03:50:17;97400.91;;;-5.77;79.06
58467;BME280;44255;49.244;7.726;2023-04-15T03:52:43;97397.53;;;-5.85;79.43
58467;BME280;44255;49.244;7.726;2023-04-15T03:55:08;97399.94;;;-5.73;79.16
58467;BME280;44255;49.244;7.726;2023-04-15T03:57:34;97403.56;;;-5.80;79.79
58467;BME280;44255;49.244;7.726;2023-04-15T04:00:03;97403.56;;;-5.80;79.09
58467;BME280;44255;49.244;7.726;2023-04-15T04:02:28;97407.91;;;-5.78;80.41
58467;BME280;44255;49.244;7.726;2023-04-15T04:04:54;97402.44;;;-5.67;79.89
58467;BME280;44255;49.244;7.726;2023-04-15T04:07:19;97410.31;;;-5.67;78.74
58467;BME280;44255;49.244;7.726;2023-04-15T04:09:44;97414.88;;;-5.75;80.00
58467;BME280;44255;49.244;7.726;2023-04-15T04:12:10;97406.78;;;-5.66;79.61
58467;BME280;44255;49.244;7.726;2023-04-15T04:14:35;97415.84;;;-5.82;79.97
58467;BME280;44255;49.244;7.726;2023-04-15T04:17:00;97417.66;;;-5.84;80.61
58467;BME280;44255;49.244;7.726;2023-04-15T04:19:26;97421.34;;;-5.49;78.96
58467;BME280;44255;49.244;7.726;2023-04-15T04:21:51;97410.84;;;-5.48;79.48
58467;BME280;44255;49.244;7.726;2023-04-15T04:24:16;97406.44;;;-5.47;78.48
58467;BME280;44255;49.244;7.726;2023-04-15T04:26:42;97416.53;;;-5.71;78.73
58467;BME280;44255;49.244;7.726;2023-04-15T04:29:07;97418.31;;;-5.73;79.60
58467;BME280;44255;49.244;7.726;2023-04-15T04:31:32;97414.44;;;-5.53;78.50
58467;BME280;44255;49.244;7.726;2023-04-15T04:33:57;97424.06;;;-5.52;78.20
58467;BME280;44255;49.244;7.726;2023-04-15T04:36:23;97420.00;;;-5.70;79.19
58467;BME280;44255;49.244;7.726;2023-04-15T04:38:48;97414.56;;;-5.60;78.65
58467;BME280;44255;49.244;7.726;2023-04-15T04:41:13;97419.34;;;-5.82;79.88
58467;BME280;44255;49.244;7.726;2023-04-15T04:43:38;97414.75;;;-5.70;78.29
58467;BME280;44255;49.244;7.726;2023-04-15T04:46:04;97417.19;;;-6.08;81.04
58467;BME280;44255;49.244;7.726;2023-04-15T04:48:29;97423.34;;;-6.11;80.45
58467;BME280;44255;49.244;7.726;2023-04-15T04:50:54;97427.31;;;-5.87;79.69
58467;BME280;44255;49.244;7.726;2023-04-15T04:53:20;97423.31;;;-5.59;79.34
58467;BME280;44255;49.244;7.726;2023-04-15T04:55:45;97428.53;;;-6.06;79.93
58467;BME280;44255;49.244;7.726;2023-04-15T04:58:10;97427.69;;;-6.08;80.87
58467;BME280;44255;49.244;7.726;2023-04-15T05:00:36;97426.16;;;-5.72;79.68
58467;BME280;44255;49.244;7.726;2023-04-15T05:03:02;97425.03;;;-5.58;78.68
58467;BME280;44255;49.244;7.726;2023-04-15T05:05:27;97427.56;;;-5.53;78.69
58467;BME280;44255;49.244;7.726;2023-04-15T05:07:53;97425.78;;;-6.00;79.47
58467;BME280;44255;49.244;7.726;2023-04-15T05:10:18;97426.34;;;-6.33;81.60
58467;BME280;44255;49.244;7.726;2023-04-15T05:12:43;97433.78;;;-6.63;83.26
58467;BME280;44255;49.244;7.726;2023-04-15T05:15:09;97426.47;;;-6.40;83.40
58467;BME280;44255;49.244;7.726;2023-04-15T05:17:34;97430.31;;;-6.65;84.04
58467;BME280;44255;49.244;7.726;2023-04-15T05:20:00;97426.94;;;-6.73;84.68
58467;BME280;44255;49.244;7.726;2023-04-15T05:22:26;97436.63;;;-6.77;85.46
58467;BME280;44255;49.244;7.726;2023-04-15T05:24:51;97435.16;;;-6.37;84.63
58467;BME280;44255;49.244;7.726;2023-04-15T05:27:16;97432.31;;;-6.23;83.82
58467;BME280;44255;49.244;7.726;2023-04-15T05:29:43;97437.91;;;-6.48;84.08
58467;BME280;44255;49.244;7.726;2023-04-15T05:32:08;97437.84;;;-6.43;85.01
58467;BME280;44255;49.244;7.726;2023-04-15T05:34:34;97440.31;;;-6.32;84.83
58467;BME280;44255;49.244;7.726;2023-04-15T05:36:59;97445.13;;;-6.06;83.34
58467;BME280;44255;49.244;7.726;2023-04-15T05:39:25;97433.97;;;-6.17;84.34
58467;BME280;44255;49.244;7.726;2023-04-15T05:41:50;97438.13;;;-6.05;84.09
58467;BME280;44255;49.244;7.726;2023-04-15T05:44:16;97440.03;;;-5.65;84.75
58467;BME280;44255;49.244;7.726;2023-04-15T05:46:41;97445.69;;;-5.39;83.38
58467;BME280;44255;49.244;7.726;2023-04-15T05:49:07;97429.75;;;-5.30;83.00
58467;BME280;44255;49.244;7.726;2023-04-15T05:51:32;97439.06;;;-5.15;82.31
58467;BME280;44255;49.244;7.726;2023-04-15T05:53:58;97441.03;;;-4.84;80.75
58467;BME280;44255;49.244;7.726;2023-04-15T05:56:23;97439.88;;;-4.70;80.35
58467;BME280;44255;49.244;7.726;2023-04-15T05:58:50;97442.69;;;-4.78;80.17
58467;BME280;44255;49.244;7.726;2023-04-15T06:01:16;97446.53;;;-4.54;79.00
58467;BME280;44255;49.244;7.726;2023-04-15T06:03:41;97449.34;;;-4.63;79.41
58467;BME280;44255;49.244;7.726;2023-04-15T06:06:07;97450.41;;;-4.70;80.19
58467;BME280;44255;49.244;7.726;2023-04-15T06:08:32;97448.44;;;-4.62;80.24
58467;BME280;44255;49.244;7.726;2023-04-15T06:10:58;97443.66;;;-4.45;79.68
58467;BME280;44255;49.244;7.726;2023-04-15T06:13:23;97441.56;;;-4.28;79.06
58467;BME280;44255;49.244;7.726;2023-04-15T06:15:48;97437.13;;;-3.92;78.45
58467;BME280;44255;49.244;7.726;2023-04-15T06:18:14;97440.94;;;-3.69;78.56
58467;BME280;44255;49.244;7.726;2023-04-15T06:20:39;97442.25;;;-3.85;77.46
58467;BME280;44255;49.244;7.726;2023-04-15T06:23:04;97444.53;;;-3.73;77.48
58467;BME280;44255;49.244;7.726;2023-04-15T06:25:30;97446.44;;;-3.78;78.10
58467;BME280;44255;49.244;7.726;2023-04-15T06:27:55;97453.88;;;-3.94;78.84
58467;BME280;44255;49.244;7.726;2023-04-15T06:30:20;97449.53;;;-3.62;78.53
58467;BME280;44255;49.244;7.726;2023-04-15T06:32:46;97447.84;;;-3.65;78.65
58467;BME280;44255;49.244;7.726;2023-04-15T06:35:11;97448.78;;;-3.67;79.39
58467;BME280;44255;49.244;7.726;2023-04-15T06:37:36;97443.44;;;-3.64;78.38
58467;BME280;44255;49.244;7.726;2023-04-15T06:40:02;97445.13;;;-3.28;78.25
58467;BME280;44255;49.244;7.726;2023-04-15T06:42:29;97442.75;;;-3.06;77.21
58467;BME280;44255;49.244;7.726;2023-04-15T06:44:55;97453.69;;;-2.90;77.60
58467;BME280;44255;49.244;7.726;2023-04-15T06:47:20;97459.28;;;-2.71;76.80
58467;BME280;44255;49.244;7.726;2023-04-15T06:49:45;97457.38;;;-2.66;75.57
58467;BME280;44255;49.244;7.726;2023-04-15T06:52:11;97459.84;;;-2.60;76.35
58467;BME280;44255;49.244;7.726;2023-04-15T06:54:36;97449.31;;;-2.33;75.47
58467;BME280;44255;49.244;7.726;2023-04-15T06:57:02;97449.88;;;-2.23;75.52
58467;BME280;44255;49.244;7.726;2023-04-15T06:59:27;97454.56;;;-2.04;75.50
58467;BME280;44255;49.244;7.726;2023-04-15T07:01:53;97445.16;;;-2.13;75.69
58467;BME280;44255;49.244;7.726;2023-04-15T07:04:18;97448.63;;;-1.82;75.16
58467;BME280;44255;49.244;7.726;2023-04-15T07:06:44;97446.94;;;-1.85;75.45
58467;BME280;44255;49.244;7.726;2023-04-15T07:09:10;97451.28;;;-1.57;74.27
58467;BME280;44255;49.244;7.726;2023-04-15T07:11:35;97451.56;;;-1.39;74.07
58467;BME280;44255;49.244;7.726;2023-04-15T07:14:01;97447.72;;;-1.31;72.95
58467;BME280;44255;49.244;7.726;2023-04-15T07:16:26;97444.84;;;-1.24;72.90
58467;BME280;44255;49.244;7.726;2023-04-15T07:18:51;97440.72;;;-1.32;74.11
58467;BME280;44255;49.244;7.726;2023-04-15T07:21:17;97438.06;;;-1.08;73.83
58467;BME280;44255;49.244;7.726;2023-04-15T07:23:42;97437.84;;;-1.02;73.33
58467;BME280;44255;49.244;7.726;2023-04-15T07:26:08;97440.47;;;-1.02;72.12
58467;BME280;44255;49.244;7.726;2023-04-15T07:28:33;97437.50;;;-0.92;72.16
58467;BME280;44255;49.244;7.726;2023-04-15T07:30:58;97443.44;;;-0.85;73.73
58467;BME280;44255;49.244;7.726;2023-04-15T07:33:24;97439.84;;;-0.61;72.68
58467;BME280;44255;49.244;7.726;2023-04-15T07:35:49;97436.03;;;-0.31;72.35
58467;BME280;44255;49.244;7.726;2023-04-15T07:38:14;97440.34;;;-0.06;71.48
58467;BME280;44255;49.244;7.726;2023-04-15T07:40:40;97426.53;;;0.08;70.07
58467;BME280;44255;49.244;7.726;2023-04-15T07:43:06;97426.00;;;0.20;68.37
58467;BME280;44255;49.244;7.726;2023-04-15T07:45:31;97431.13;;;0.46;66.80
58467;BME280;44255;49.244;7.726;2023-04-15T07:47:57;97433.00;;;0.64;64.91
58467;BME280;44255;49.244;7.726;2023-04-15T07:50:23;97428.41;;;0.89;63.64
58467;BME280;44255;49.244;7.726;2023-04-15T07:52:51;97421.81;;;0.98;62.71
58467;BME280;44255;49.244;7.726;2023-04-15T07:55:18;97423.84;;;1.31;61.89
58467;BME280;44255;49.244;7.726;2023-04-15T07:57:45;97432.81;;;1.47;61.71
58467;BME280;44255;49.244;7.726;2023-04-15T08:00:12;97432.94;;;1.63;60.61
58467;BME280;44255;49.244;7.726;2023-04-15T08:02:37;97430.28;;;2.00;61.34
58467;BME280;44255;49.244;7.726;2023-04-15T08:05:03;97432.59;;;1.89;60.43
58467;BME280;44255;49.244;7.726;2023-04-15T08:07:28;97436.00;;;2.10;60.61
58467;BME280;44255;49.244;7.726;2023-04-15T08:09:54;97440.38;;;2.11;60.44
58467;BME280;44255;49.244;7.726;2023-04-15T08:12:20;97427.88;;;2.13;60.80
58467;BME280;44255;49.244;7.726;2023-04-15T08:14:45;97434.34;;;2.25;60.05
58467;BME280;44255;49.244;7.726;2023-04-15T08:17:11;97436.34;;;2.39;59.72
58467;BME280;44255;49.244;7.726;2023-04-15T08:19:36;97432.13;;;2.52;59.02
58467;BME280;44255;49.244;7.726;2023-04-15T08:22:02;97442.22;;;2.63;58.66
58467;BME280;44255;49.244;7.726;2023-04-15T08:24:27;97442.66;;;2.72;57.66
58467;BME280;44255;49.244;7.726;2023-04-15T08:26:52;97444.13;;;2.95;58.17
58467;BME280;44255;49.244;7.726;2023-04-15T08:29:18;97441.22;;;3.00;56.98
58467;BME280;44255;49.244;7.726;2023-04-15T08:31:43;97449.69;;;2.90;56.96
58467;BME280;44255;49.244;7.726;2023-04-15T08:34:10;97443.38;;;3.09;57.45
58467;BME280;44255;49.244;7.726;2023-04-15T08:36:35;97448.47;;;3.14;56.77
58467;BME280;44255;49.244;7.726;2023-04-15T08:39:01;97449.00;;;3.20;56.20
58467;BME280;44255;49.244;7.726;2023-04-15T08:41:34;97452.97;;;3.29;55.84
58467;BME280;44255;49.244;7.726;2023-04-15T08:44:04;97454.34;;;3.36;55.73
58467;BME280;44255;49.244;7.726;2023-04-15T08:46:33;97460.47;;;3.38;56.12
58467;BME280;44255;49.244;7.726;2023-04-15T08:48:59;97461.22;;;3.57;54.10
58467;BME280;44255;49.244;7.726;2023-04-15T08:51:27;97468.72;;;3.66;54.40
58467;BME280;44255;49.244;7.726;2023-04-15T08:53:53;97456.34;;;3.65;54.16
58467;BME280;44255;49.244;7.726;2023-04-15T08:56:18;97455.81;;;3.74;53.88
58467;BME280;44255;49.244;7.726;2023-04-15T08:58:46;97454.63;;;3.80;53.29
58467;BME280;44255;49.244;7.726;2023-04-15T09:01:12;97447.81;;;3.74;45.21
58467;BME280;44255;49.244;7.726;2023-04-15T09:03:38;97457.69;;;3.88;48.55
58467;BME280;44255;49.244;7.726;2023-04-15T09:06:05;97452.28;;;3.90;48.06
58467;BME280;44255;49.244;7.726;2023-04-15T09:08:31;97449.81;;;4.03;44.11
58467;BME280;44255;49.244;7.726;2023-04-15T09:10:56;97456.41;;;4.12;45.17
58467;BME280;44255;49.244;7.726;2023-04-15T09:13:21;97462.59;;;4.28;44.27
58467;BME280;44255;49.244;7.726;2023-04-15T09:15:47;97458.00;;;4.30;44.33
58467;BME280;44255;49.244;7.726;2023-04-15T09:18:13;97456.03;;;4.34;43.93
58467;BME280;44255;49.244;7.726;2023-04-15T09:20:52;97458.06;;;4.45;42.40
58467;BME280;44255;49.244;7.726;2023-04-15T09:23:17;97455.31;;;4.46;42.07
58467;BME280;44255;49.244;7.726;2023-04-15T09:25:42;97455.06;;;4.65;43.10
58467;BME280;44255;49.244;7.726;2023-04-15T09:28:08;97461.84;;;4.71;42.95
58467;BME280;44255;49.244;7.726;2023-04-15T09:30:33;97458.53;;;4.82;43.98
58467;BME280;44255;49.244;7.726;2023-04-15T09:33:01;97460.66;;;4.91;43.96
58467;BME280;44255;49.244;7.726;2023-04-15T09:35:27;97451.19;;;4.86;42.53
58467;BME280;44255;49.244;7.726;2023-04-15T09:37:53;97464.47;;;4.87;41.23
58467;BME280;44255;49.244;7.726;2023-04-15T09:40:38;97461.69;;;4.89;37.15
58467;BME280;44255;49.244;7.726;2023-04-15T09:43:04;97464.38;;;5.03;38.11
58467;BME280;44255;49.244;7.726;2023-04-15T09:45:31;97478.28;;;5.08;39.18
58467;BME280;44255;49.244;7.726;2023-04-15T09:47:58;97475.53;;;5.10;37.64
58467;BME280;44255;49.244;7.726;2023-04-15T09:50:27;97472.78;;;5.12;39.04
58467;BME280;44255;49.244;7.726;2023-04-15T09:52:53;97485.09;;;5.29;39.46
58467;BME280;44255;49.244;7.726;2023-04-15T09:55:19;97484.34;;;5.41;37.29
58467;BME280;44255;49.244;7.726;2023-04-15T09:57:45;97475.94;;;5.47;35.27
58467;BME280;44255;49.244;7.726;2023-04-15T10:00:11;97483.97;;;5.47;35.49
58467;BME280;44255;49.244;7.726;2023-04-15T10:02:41;97484.16;;;5.59;34.83
58467;BME280;44255;49.244;7.726;2023-04-15T10:05:09;97481.28;;;5.62;35.15
58467;BME280;44255;49.244;7.726;2023-04-15T10:07:35;97487.78;;;5.72;35.98
58467;BME280;44255;49.244;7.726;2023-04-15T10:10:02;97485.28;;;5.69;36.68
58467;BME280;44255;49.244;7.726;2023-04-15T10:12:28;97491.00;;;5.77;37.95
58467;BME280;44255;49.244;7.726;2023-04-15T10:14:58;97483.53;;;5.83;37.68
58467;BME280;44255;49.244;7.726;2023-04-15T10:17:26;97496.22;;;5.93;38.68
58467;BME280;44255;49.244;7.726;2023-04-15T10:19:59;97491.28;;;5.87;39.35
58467;BME280;44255;49.244;7.726;2023-04-15T10:22:27;97490.94;;;6.06;37.36
58467;BME280;44255;49.244;7.726;2023-04-15T10:24:53;97501.53;;;6.08;39.33
58467;BME280;44255;49.244;7.726;2023-04-15T10:27:20;97505.41;;;5.89;39.74
58467;BME280;44255;49.244;7.726;2023-04-15T10:29:46;97509.75;;;6.05;40.20
58467;BME280;44255;49.244;7.726;2023-04-15T10:32:12;97502.44;;;5.94;39.59
58467;BME280;44255;49.244;7.726;2023-04-15T10:34:38;97512.53;;;6.03;40.45
58467;BME280;44255;49.244;7.726;2023-04-15T10:37:04;97509.25;;;6.13;40.74
58467;BME280;44255;49.244;7.726;2023-04-15T10:44:32;97516.97;;;6.32;42.29
58467;BME280;44255;49.244;7.726;2023-04-15T10:46:57;97515.81;;;6.49;42.35
58467;BME280;44255;49.244;7.726;2023-04-15T10:49:24;97518.00;;;6.57;42.02
58467;BME280;44255;49.244;7.726;2023-04-15T10:51:51;97522.81;;;6.51;40.80
58467;BME280;44255;49.244;7.726;2023-04-15T10:57:05;97525.94;;;6.58;41.64
58467;BME280;44255;49.244;7.726;2023-04-15T10:59:35;97529.75;;;6.54;40.84
58467;BME280;44255;49.244;7.726;2023-04-15T11:02:03;97533.75;;;6.61;40.48
58467;BME280;44255;49.244;7.726;2023-04-15T11:04:51;97527.53;;;6.61;41.47
58467;BME280;44255;49.244;7.726;2023-04-15T11:07:36;97526.66;;;6.75;41.67
58467;BME280;44255;49.244;7.726;2023-04-15T11:12:52;97525.81;;;6.87;41.69
58467;BME280;44255;49.244;7.726;2023-04-15T11:15:44;97538.88;;;6.79;41.41
58467;BME280;44255;49.244;7.726;2023-04-15T11:18:23;97545.28;;;6.76;40.63
58467;BME280;44255;49.244;7.726;2023-04-15T11:20:52;97545.06;;;6.79;39.99
58467;BME280;44255;49.244;7.726;2023-04-15T11:23:26;97550.03;;;6.99;39.63
58467;BME280;44255;49.244;7.726;2023-04-15T11:25:54;97551.91;;;7.11;39.58
58467;BME280;44255;49.244;7.726;2023-04-15T11:28:19;97555.03;;;7.31;39.24
58467;BME280;44255;49.244;7.726;2023-04-15T11:30:45;97550.63;;;7.56;38.46
58467;BME280;44255;49.244;7.726;2023-04-15T11:33:10;97543.88;;;7.50;37.87
58467;BME280;44255;49.244;7.726;2023-04-15T11:35:36;97556.94;;;7.42;38.78
58467;BME280;44255;49.244;7.726;2023-04-15T11:38:03;97561.00;;;7.08;39.31
58467;BME280;44255;49.244;7.726;2023-04-15T11:40:29;97566.13;;;6.99;38.54
58467;BME280;44255;49.244;7.726;2023-04-15T11:43:08;97570.03;;;6.80;39.07
58467;BME280;44255;49.244;7.726;2023-04-15T11:45:47;97579.47;;;6.73;40.05
58467;BME280;44255;49.244;7.726;2023-04-15T11:48:13;97579.06;;;6.64;40.29
58467;BME280;44255;49.244;7.726;2023-04-15T11:50:39;97579.81;;;6.67;38.02
58467;BME280;44255;49.244;7.726;2023-04-15T11:53:07;97586.53;;;6.32;37.40
58467;BME280;44255;49.244;7.726;2023-04-15T11:55:44;97588.00;;;6.50;37.64
58467;BME280;44255;49.244;7.726;2023-04-15T11:58:16;97590.72;;;6.63;39.39
58467;BME280;44255;49.244;7.726;2023-04-15T12:00:52;97584.84;;;6.58;38.68
58467;BME280;44255;49.244;7.726;2023-04-15T12:03:25;97587.28;;;6.76;39.41
58467;BME280;44255;49.244;7.726;2023-04-15T12:11:27;97585.13;;;7.73;38.20
58467;BME280;44255;49.244;7.726;2023-04-15T12:16:33;97591.44;;;8.61;37.06
58467;BME280;44255;49.244;7.726;2023-04-15T12:18:59;97608.56;;;7.97;38.33
58467;BME280;44255;49.244;7.726;2023-04-15T12:21:26;97604.25;;;7.82;38.34
58467;BME280;44255;49.244;7.726;2023-04-15T12:23:57;97613.28;;;7.68;39.14
58467;BME280;44255;49.244;7.726;2023-04-15T12:26:28;97619.03;;;7.48;39.82
58467;BME280;44255;49.244;7.726;2023-04-15T12:29:00;97608.56;;;7.84;37.85
58467;BME280;44255;49.244;7.726;2023-04-15T12:31:26;97614.53;;;7.49;39.71
58467;BME280;44255;49.244;7.726;2023-04-15T12:33:56;97622.16;;;7.68;39.34
58467;BME280;44255;49.244;7.726;2023-04-15T12:36:22;97624.28;;;7.37;39.27
58467;BME280;44255;49.244;7.726;2023-04-15T12:38:48;97631.09;;;6.75;40.65
58467;BME280;44255;49.244;7.726;2023-04-15T12:41:13;97629.69;;;7.89;39.72
58467;BME280;44255;49.244;7.726;2023-04-15T12:43:38;97629.69;;;8.15;39.86
58467;BME280;44255;49.244;7.726;2023-04-15T12:46:04;97640.19;;;8.92;38.08
58467;BME280;44255;49.244;7.726;2023-04-15T12:48:29;97638.41;;;9.29;37.34
58467;BME280;44255;49.244;7.726;2023-04-15T12:50:55;97643.25;;;9.48;35.71
58467;BME280;44255;49.244;7.726;2023-04-15T12:53:20;97631.19;;;9.65;33.11
58467;BME280;44255;49.244;7.726;2023-04-15T12:55:45;97639.81;;;9.46;31.84
58467;BME280;44255;49.244;7.726;2023-04-15T12:58:10;97649.41;;;9.26;31.67
58467;BME280;44255;49.244;7.726;2023-04-15T13:00:36;97642.31;;;9.25;28.70
58467;BME280;44255;49.244;7.726;2023-04-15T13:03:01;97653.25;;;8.35;28.65
58467;BME280;44255;49.244;7.726;2023-04-15T13:05:27;97652.06;;;8.53;28.45
58467;BME280;44255;49.244;7.726;2023-04-15T13:07:52;97660.03;;;7.76;28.91
58467;BME280;44255;49.244;7.726;2023-04-15T13:10:18;97665.22;;;8.18;29.53
58467;BME280;44255;49.244;7.726;2023-04-15T13:12:43;97658.09;;;8.43;30.17
58467;BME280;44255;49.244;7.726;2023-04-15T13:15:11;97659.19;;;8.65;31.25
58467;BME280;44255;49.244;7.726;2023-04-15T13:17:37;97657.25;;;7.91;30.64
58467;BME280;44255;49.244;7.726;2023-04-15T13:20:02;97668.19;;;7.88;31.08